createdAt,value
2022-11-06T00:00:08.302Z,8.85
2022-11-06T00:03:07.166Z,8.25
2022-11-06T00:05:58.691Z,10.10
2022-11-06T00:08:30.059Z,7.90
2022-11-06T00:10:59.257Z,7.25
2022-11-06T00:13:29.470Z,5.88
2022-11-06T00:16:02.875Z,5.75
2022-11-06T00:18:32.280Z,5.40
2022-11-06T00:21:08.671Z,5.53
2022-11-06T00:23:38.065Z,6.05
2022-11-06T00:26:08.385Z,5.82
2022-11-06T00:28:38.232Z,5.22
2022-11-06T00:31:09.340Z,5.25
2022-11-06T00:33:38.886Z,5.70
2022-11-06T00:36:11.963Z,5.57
2022-11-06T00:38:41.410Z,5.78
2022-11-06T00:41:13.319Z,6.63
2022-11-06T00:43:43.596Z,5.50
2022-11-06T00:46:14.682Z,11.32
2022-11-06T00:48:44.449Z,9.13
2022-11-06T00:51:16.657Z,7.72
2022-11-06T00:53:46.835Z,10.27
2022-11-06T00:56:17.746Z,10.05
2022-11-06T00:58:48.264Z,9.73
2022-11-06T01:01:19.954Z,10.55
2022-11-06T01:03:53.058Z,11.40
2022-11-06T01:06:25.545Z,12.10
2022-11-06T01:08:55.657Z,12.07
2022-11-06T01:11:41.821Z,14.32
2022-11-06T01:14:21.105Z,12.52
2022-11-06T01:16:50.309Z,12.00
2022-11-06T01:19:21.411Z,11.02
2022-11-06T01:21:54.425Z,10.48
2022-11-06T01:24:25.614Z,11.05
2022-11-06T01:29:44.678Z,11.07
2022-11-06T01:32:13.923Z,11.48
2022-11-06T01:34:43.378Z,10.38
2022-11-06T01:37:14.989Z,9.80
2022-11-06T01:39:44.793Z,10.50
2022-11-06T01:42:16.101Z,9.80
2022-11-06T01:45:25.190Z,8.95
2022-11-06T01:47:54.477Z,9.02
2022-11-06T01:50:24.034Z,7.70
2022-11-06T01:52:54.651Z,7.97
2022-11-06T01:55:30.022Z,8.38
2022-11-06T01:58:02.020Z,8.63
2022-11-06T02:00:32.723Z,7.82
2022-11-06T02:03:02.706Z,9.43
2022-11-06T02:05:32.285Z,10.48
2022-11-06T02:08:04.445Z,9.60
2022-11-06T02:10:35.416Z,7.90
2022-11-06T02:13:18.970Z,7.55
2022-11-06T02:15:52.926Z,7.40
2022-11-06T02:18:57.018Z,6.60
2022-11-06T02:21:59.400Z,6.72
2022-11-06T02:24:52.569Z,5.68
2022-11-06T02:27:27.933Z,5.40
2022-11-06T02:30:03.687Z,6.45
2022-11-06T02:32:40.312Z,7.10
2022-11-06T02:35:19.485Z,6.07
2022-11-06T02:37:53.794Z,6.28
2022-11-06T02:40:25.225Z,6.28
2022-11-06T02:43:00.058Z,5.97
2022-11-06T02:45:32.072Z,6.10
2022-11-06T02:48:03.056Z,5.43
2022-11-06T02:50:36.728Z,5.30
2022-11-06T02:53:12.321Z,6.15
2022-11-06T02:55:45.397Z,4.60
2022-11-06T02:58:20.504Z,5.22
2022-11-06T03:00:55.957Z,5.07
2022-11-06T03:05:59.745Z,3.55
2022-11-06T03:08:34.660Z,4.95
2022-11-06T03:11:10.848Z,4.40
2022-11-06T03:13:50.975Z,4.30
2022-11-06T03:16:30.070Z,4.10
2022-11-06T03:19:05.515Z,5.18
2022-11-06T03:21:44.582Z,4.75
2022-11-06T03:24:18.183Z,4.53
2022-11-06T03:26:51.213Z,5.25
2022-11-06T03:29:29.214Z,4.40
2022-11-06T03:36:59.059Z,4.05
2022-11-06T03:39:31.521Z,4.10
2022-11-06T03:42:05.577Z,3.88
2022-11-06T03:44:40.710Z,3.78
2022-11-06T03:47:14.444Z,4.18
2022-11-06T03:49:49.178Z,4.07
2022-11-06T03:52:24.076Z,3.85
2022-11-06T03:54:59.843Z,3.78
2022-11-06T03:57:35.126Z,3.72
2022-11-06T04:00:09.154Z,4.05
2022-11-06T04:02:50.400Z,4.25
2022-11-06T04:05:23.033Z,3.50
2022-11-06T04:08:14.805Z,4.57
2022-11-06T04:11:06.887Z,4.07
2022-11-06T04:13:56.803Z,4.93
2022-11-06T04:16:32.054Z,3.58
2022-11-06T04:19:02.442Z,3.53
2022-11-06T04:21:53.951Z,4.97
2022-11-06T04:24:52.061Z,5.43
2022-11-06T04:27:41.622Z,4.72
2022-11-06T04:30:12.888Z,3.15
2022-11-06T04:32:59.815Z,4.30
2022-11-06T04:35:38.405Z,5.45
2022-11-06T04:38:14.171Z,4.18
2022-11-06T04:40:52.127Z,4.38
2022-11-06T04:43:31.357Z,4.72
2022-11-06T04:46:03.548Z,5.22
2022-11-06T04:48:34.588Z,6.03
2022-11-06T04:51:08.504Z,6.07
2022-11-06T04:53:38.702Z,5.43
2022-11-06T04:56:11.585Z,6.03
2022-11-06T04:58:40.714Z,5.95
2022-11-06T05:01:11.156Z,5.43
2022-11-06T05:03:41.758Z,5.45
2022-11-06T05:06:12.149Z,4.78
2022-11-06T05:08:41.306Z,5.30
2022-11-06T05:11:11.102Z,5.97
2022-11-06T05:13:40.251Z,4.40
2022-11-06T05:16:09.974Z,5.53
2022-11-06T05:18:40.417Z,5.28
2022-11-06T05:21:28.172Z,4.70
2022-11-06T05:23:57.277Z,4.55
2022-11-06T05:26:26.725Z,4.30
2022-11-06T05:28:56.830Z,4.65
2022-11-06T05:31:26.982Z,5.68
2022-11-06T05:33:57.612Z,4.38
2022-11-06T05:36:26.980Z,4.53
2022-11-06T05:38:56.108Z,6.18
2022-11-06T05:41:25.443Z,5.47
2022-11-06T05:43:55.078Z,5.65
2022-11-06T05:46:47.188Z,4.68
2022-11-06T05:49:15.097Z,4.75
2022-11-06T05:51:44.527Z,4.82
2022-11-06T05:54:13.809Z,4.68
2022-11-06T05:56:43.199Z,6.07
2022-11-06T05:59:13.117Z,4.97
2022-11-06T06:01:42.610Z,4.45
2022-11-06T06:04:13.317Z,5.47
2022-11-06T06:06:43.210Z,5.35
2022-11-06T06:09:12.315Z,5.50
2022-11-06T06:11:41.631Z,5.60
2022-11-06T06:14:10.802Z,5.32
2022-11-06T06:16:40.189Z,6.32
2022-11-06T06:19:09.243Z,6.13
2022-11-06T06:21:40.248Z,5.90
2022-11-06T06:24:09.786Z,7.55
2022-11-06T06:26:39.297Z,5.82
2022-11-06T06:29:08.349Z,6.28
2022-11-06T06:31:37.708Z,6.85
2022-11-06T06:34:06.780Z,6.15
2022-11-06T06:36:36.288Z,6.03
2022-11-06T06:39:06.972Z,6.68
2022-11-06T06:41:36.565Z,6.10
2022-11-06T06:44:05.944Z,6.35
2022-11-06T06:46:35.240Z,7.40
2022-11-06T06:49:04.899Z,6.45
2022-11-06T06:51:34.607Z,5.88
2022-11-06T06:54:05.219Z,6.97
2022-11-06T06:56:34.637Z,7.05
2022-11-06T06:59:03.837Z,6.43
2022-11-06T07:01:33.343Z,7.75
2022-11-06T07:04:04.480Z,10.10
2022-11-06T07:06:34.704Z,7.28
2022-11-06T07:09:05.241Z,9.93
2022-11-06T07:11:36.164Z,9.77
2022-11-06T07:14:05.282Z,9.77
2022-11-06T07:16:34.609Z,8.68
2022-11-06T07:19:03.781Z,11.10
2022-11-06T07:21:33.164Z,10.32
2022-11-06T07:24:02.284Z,8.35
2022-11-06T07:26:33.114Z,7.40
2022-11-06T07:29:02.400Z,7.85
2022-11-06T07:31:33.115Z,8.18
2022-11-06T07:34:02.370Z,9.82
2022-11-06T07:36:32.886Z,11.20
2022-11-06T07:39:01.884Z,9.90
2022-11-06T07:41:33.181Z,10.35
2022-11-06T07:44:02.319Z,9.23
2022-11-06T07:46:32.075Z,8.55
2022-11-06T07:49:01.541Z,8.45
2022-11-06T07:51:31.059Z,7.15
2022-11-06T07:54:00.193Z,8.23
2022-11-06T07:56:29.752Z,8.18
2022-11-06T07:59:00.383Z,7.18
2022-11-06T08:01:30.101Z,6.57
2022-11-06T08:03:59.598Z,7.38
2022-11-06T08:06:28.935Z,8.15
2022-11-06T08:08:59.225Z,7.63
2022-11-06T08:11:28.790Z,8.32
2022-11-06T08:14:00.657Z,8.13
2022-11-06T08:16:30.450Z,8.15
2022-11-06T08:18:59.617Z,8.10
2022-11-06T08:21:29.108Z,7.93
2022-11-06T08:23:58.276Z,7.78
2022-11-06T08:26:28.007Z,7.65
2022-11-06T08:28:57.774Z,7.38
2022-11-06T08:31:28.607Z,7.63
2022-11-06T08:33:57.661Z,6.25
2022-11-06T08:36:27.207Z,6.43
2022-11-06T08:38:56.174Z,6.80
2022-11-06T08:41:25.596Z,6.40
2022-11-06T08:43:54.813Z,6.60
2022-11-06T08:46:24.316Z,6.88
2022-11-06T08:48:55.229Z,6.30
2022-11-06T08:51:24.851Z,6.40
2022-11-06T08:53:54.143Z,7.80
2022-11-06T08:56:23.906Z,7.55
2022-11-06T08:58:55.700Z,6.38
2022-11-06T09:01:25.388Z,7.70
2022-11-06T09:03:56.296Z,7.97
2022-11-06T09:06:26.546Z,6.88
2022-11-06T09:08:55.624Z,7.80
2022-11-06T09:11:25.183Z,6.47
2022-11-06T09:13:54.370Z,6.13
2022-11-06T09:16:24.670Z,5.82
2022-11-06T09:18:57.596Z,6.00
2022-11-06T09:21:27.021Z,5.25
2022-11-06T09:23:56.188Z,5.28
2022-11-06T09:26:25.607Z,6.38
2022-11-06T09:28:54.703Z,6.32
2022-11-06T09:31:24.194Z,6.50
2022-11-06T09:33:53.351Z,5.38
2022-11-06T09:36:24.288Z,5.78
2022-11-06T09:38:53.529Z,5.00
2022-11-06T09:41:34.683Z,4.97
2022-11-06T09:44:22.649Z,4.88
2022-11-06T09:46:52.974Z,4.95
2022-11-06T09:49:27.230Z,4.72
2022-11-06T09:52:03.221Z,4.40
2022-11-06T09:54:38.826Z,5.07
2022-11-06T09:57:17.828Z,5.43
2022-11-06T09:59:48.186Z,5.50
2022-11-06T10:02:27.130Z,5.75
2022-11-06T10:05:05.209Z,6.22
2022-11-06T10:07:39.223Z,6.40
2022-11-06T10:10:15.571Z,5.32
2022-11-06T10:13:02.362Z,5.13
2022-11-06T10:15:35.682Z,5.93
2022-11-06T10:18:16.789Z,5.95
2022-11-06T10:20:52.685Z,5.03
2022-11-06T10:23:40.171Z,4.15
2022-11-06T10:26:16.153Z,4.10
2022-11-06T10:29:08.795Z,4.07
2022-11-06T10:31:46.996Z,3.67
2022-11-06T10:34:19.385Z,4.22
2022-11-06T10:36:53.004Z,3.85
2022-11-06T10:39:28.138Z,3.83
2022-11-06T10:42:05.129Z,3.95
2022-11-06T10:44:39.188Z,3.90
2022-11-06T10:47:16.823Z,3.70
2022-11-06T10:49:50.063Z,3.55
2022-11-06T10:52:47.176Z,3.67
2022-11-06T10:55:54.775Z,3.70
2022-11-06T10:58:28.264Z,3.03
2022-11-06T11:01:01.405Z,3.30
2022-11-06T11:03:33.965Z,2.80
2022-11-06T11:06:05.066Z,3.55
2022-11-06T11:08:36.325Z,3.20
2022-11-06T11:11:17.076Z,3.22
2022-11-06T11:13:47.935Z,3.20
2022-11-06T11:16:19.426Z,3.15
2022-11-06T11:18:49.538Z,2.95
2022-11-06T11:21:28.258Z,3.03
2022-11-06T11:24:09.534Z,2.78
2022-11-06T11:26:44.834Z,3.28
2022-11-06T11:29:18.330Z,2.70
2022-11-06T11:31:51.609Z,2.80
2022-11-06T11:34:24.634Z,2.60
2022-11-06T11:37:01.375Z,2.80
2022-11-06T11:39:33.945Z,2.88
2022-11-06T11:42:25.262Z,2.88
2022-11-06T11:45:18.347Z,3.22
2022-11-06T11:47:49.511Z,3.13
2022-11-06T11:50:36.597Z,3.13
2022-11-06T11:53:17.870Z,2.58
2022-11-06T11:55:49.507Z,3.10
2022-11-06T11:58:28.093Z,2.90
2022-11-06T12:00:59.316Z,3.08
2022-11-06T12:03:33.509Z,3.80
2022-11-06T12:06:11.514Z,3.03
2022-11-06T12:08:46.338Z,3.20
2022-11-06T12:11:20.730Z,2.95
2022-11-06T12:14:22.782Z,3.40
2022-11-06T12:16:58.166Z,3.55
2022-11-06T12:19:31.774Z,3.30
2022-11-06T12:22:07.762Z,3.70
2022-11-06T12:24:44.303Z,3.40
2022-11-06T12:27:17.395Z,3.05
2022-11-06T12:29:50.880Z,3.80
2022-11-06T12:32:34.661Z,3.47
2022-11-06T12:35:13.884Z,3.35
2022-11-06T12:37:54.202Z,3.30
2022-11-06T12:40:26.681Z,3.30
2022-11-06T12:43:12.014Z,3.88
2022-11-06T12:46:03.796Z,3.40
2022-11-06T12:48:57.567Z,3.50
2022-11-06T12:51:38.991Z,3.40
2022-11-06T12:54:30.008Z,3.50
2022-11-06T12:57:07.583Z,3.60
2022-11-06T12:59:48.161Z,3.50
2022-11-06T13:02:35.544Z,3.63
2022-11-06T13:05:17.215Z,4.13
2022-11-06T13:08:17.375Z,3.75
2022-11-06T13:10:58.571Z,3.97
2022-11-06T13:13:43.305Z,3.90
2022-11-06T13:16:23.370Z,4.00
2022-11-06T13:18:57.398Z,7.00
2022-11-06T13:21:39.236Z,7.90
2022-11-06T13:24:14.747Z,6.55
2022-11-06T13:26:49.105Z,7.38
2022-11-06T13:29:20.915Z,7.47
2022-11-06T13:31:58.055Z,12.52
2022-11-06T13:34:31.957Z,10.18
2022-11-06T13:37:03.149Z,6.17
2022-11-06T13:39:38.498Z,5.22
2022-11-06T13:42:16.300Z,5.32
2022-11-06T13:44:46.531Z,5.45
2022-11-06T13:47:22.040Z,4.50
2022-11-06T13:50:02.982Z,5.30
2022-11-06T13:52:40.381Z,4.68
2022-11-06T13:55:20.399Z,4.57
2022-11-06T13:58:21.445Z,5.28
2022-11-06T14:01:03.183Z,5.13
2022-11-06T14:04:23.039Z,5.28
2022-11-06T14:06:56.598Z,4.90
2022-11-06T14:09:32.379Z,4.78
2022-11-06T14:12:08.902Z,5.65
2022-11-06T14:14:40.638Z,5.22
2022-11-06T14:17:22.022Z,4.80
2022-11-06T14:20:08.145Z,5.82
2022-11-06T14:22:39.039Z,5.47
2022-11-06T14:25:44.413Z,6.05
2022-11-06T14:28:31.257Z,5.05
2022-11-06T14:31:20.852Z,6.20
2022-11-06T14:34:02.489Z,6.68
2022-11-06T14:36:37.331Z,5.70
2022-11-06T14:39:14.494Z,5.13
2022-11-06T14:41:59.693Z,4.75
2022-11-06T14:44:47.082Z,5.18
2022-11-06T14:47:43.489Z,4.78
2022-11-06T14:50:27.674Z,4.20
2022-11-06T14:53:01.485Z,4.53
2022-11-06T14:55:33.714Z,3.78
2022-11-06T14:58:19.973Z,4.07
2022-11-06T15:03:26.929Z,3.95
2022-11-06T15:06:01.654Z,4.20
2022-11-06T15:08:54.132Z,4.80
2022-11-06T15:11:51.678Z,5.80
2022-11-06T15:15:00.726Z,7.20
2022-11-06T15:17:36.473Z,9.32
2022-11-06T15:20:25.817Z,11.98
2022-11-06T15:23:12.893Z,11.27
2022-11-06T15:25:58.132Z,9.95
2022-11-06T15:28:33.245Z,11.38
2022-11-06T15:31:06.758Z,10.45
2022-11-06T15:33:51.639Z,10.23
2022-11-06T15:36:24.963Z,10.20
2022-11-06T15:38:54.102Z,10.65
2022-11-06T15:41:26.085Z,9.82
2022-11-06T15:43:57.209Z,9.20
2022-11-06T15:46:28.747Z,8.48
2022-11-06T15:49:24.928Z,10.25
2022-11-06T15:51:57.414Z,10.40
2022-11-06T15:54:36.124Z,10.85
2022-11-06T15:57:14.804Z,10.60
2022-11-06T15:59:44.063Z,9.70
2022-11-06T16:02:19.909Z,10.43
2022-11-06T16:04:51.434Z,9.02
2022-11-06T16:07:21.813Z,8.13
2022-11-06T16:09:52.798Z,7.53
2022-11-06T16:12:22.479Z,17.30
2022-11-06T16:14:51.502Z,14.70
2022-11-06T16:17:26.828Z,26.98
2022-11-06T16:20:00.246Z,16.83
2022-11-06T16:22:32.456Z,13.82
2022-11-06T16:25:04.089Z,15.68
2022-11-06T16:27:36.362Z,16.98
2022-11-06T16:30:06.840Z,10.82
2022-11-06T16:32:42.390Z,15.82
2022-11-06T16:35:37.392Z,13.55
2022-11-06T16:38:42.531Z,13.13
2022-11-06T16:41:34.374Z,96.90
2022-11-06T16:44:26.241Z,54.22
2022-11-06T16:47:20.362Z,52.67
2022-11-06T16:49:53.948Z,30.80
2022-11-06T16:52:29.509Z,25.15
2022-11-06T16:55:02.532Z,18.65
2022-11-06T16:57:34.990Z,18.90
2022-11-06T17:00:06.986Z,21.05
2022-11-06T17:02:39.210Z,21.52
2022-11-06T17:08:09.464Z,28.15
2022-11-06T17:10:41.175Z,28.75
2022-11-06T17:13:18.906Z,24.50
2022-11-06T17:15:52.998Z,25.38
2022-11-06T17:18:23.758Z,21.67
2022-11-06T17:20:57.139Z,18.92
2022-11-06T17:23:29.134Z,17.05
2022-11-06T17:26:02.421Z,15.30
2022-11-06T17:28:32.558Z,15.18
2022-11-06T17:31:02.034Z,16.23
2022-11-06T17:33:31.104Z,16.17
2022-11-06T17:36:00.632Z,16.30
2022-11-06T17:38:33.107Z,16.65
2022-11-06T17:41:02.510Z,15.02
2022-11-06T17:43:31.594Z,14.93
2022-11-06T17:46:02.209Z,15.05
2022-11-06T17:48:31.405Z,36.05
2022-11-06T17:51:18.508Z,26.05
2022-11-06T17:53:50.458Z,26.00
2022-11-06T17:56:20.631Z,16.85
2022-11-06T17:58:49.825Z,14.98
2022-11-06T18:01:19.758Z,14.90
2022-11-06T18:03:49.079Z,14.40
2022-11-06T18:06:19.057Z,15.10
2022-11-06T18:08:49.895Z,13.50
2022-11-06T18:11:19.387Z,11.88
2022-11-06T18:13:48.550Z,13.82
2022-11-06T18:16:19.157Z,13.93
2022-11-06T18:18:49.025Z,13.07
2022-11-06T18:21:18.481Z,12.18
2022-11-06T18:23:49.122Z,12.48
2022-11-06T18:26:18.837Z,13.23
2022-11-06T18:28:48.166Z,16.38
2022-11-06T18:31:18.289Z,15.30
2022-11-06T18:33:47.557Z,13.77
2022-11-06T18:36:17.953Z,13.25
2022-11-06T18:38:48.659Z,12.88
2022-11-06T18:41:20.554Z,13.52
2022-11-06T18:43:50.159Z,13.18
2022-11-06T18:46:20.807Z,12.88
2022-11-06T18:48:50.256Z,12.32
2022-11-06T18:51:33.877Z,14.18
2022-11-06T18:54:07.638Z,15.27
2022-11-06T18:56:38.948Z,13.75
2022-11-06T18:59:09.783Z,12.05
2022-11-06T19:01:40.375Z,13.98
2022-11-06T19:04:10.992Z,13.38
2022-11-06T19:06:41.180Z,11.13
2022-11-06T19:09:11.799Z,11.55
2022-11-06T19:11:41.275Z,12.30
2022-11-06T19:14:10.615Z,11.63
2022-11-06T19:16:40.052Z,11.40
2022-11-06T19:19:09.339Z,11.50
2022-11-06T19:21:40.510Z,11.07
2022-11-06T19:24:14.499Z,11.40
2022-11-06T19:26:44.086Z,12.30
2022-11-06T19:29:13.260Z,12.70
2022-11-06T19:31:43.574Z,11.57
2022-11-06T19:34:15.081Z,11.75
2022-11-06T19:36:44.565Z,12.63
2022-11-06T19:39:15.311Z,11.77
2022-11-06T19:41:44.903Z,17.42
2022-11-06T19:44:14.541Z,30.65
2022-11-06T19:46:43.898Z,29.88
2022-11-06T19:49:13.126Z,31.25
2022-11-06T19:51:42.607Z,34.20
2022-11-06T19:54:12.239Z,29.58
2022-11-06T19:57:27.504Z,21.42
2022-11-06T19:59:32.579Z,19.80
2022-11-06T20:02:02.721Z,17.05
2022-11-06T20:04:32.062Z,13.10
2022-11-06T20:07:01.780Z,14.30
2022-11-06T20:09:31.031Z,16.08
2022-11-06T20:12:02.016Z,15.38
2022-11-06T20:14:31.579Z,14.27
2022-11-06T20:17:01.018Z,13.43
2022-11-06T20:19:30.238Z,15.18
2022-11-06T20:21:59.602Z,13.80
2022-11-06T20:24:28.684Z,15.23
2022-11-06T20:26:58.418Z,15.38
2022-11-06T20:29:29.016Z,15.73
2022-11-06T20:31:58.328Z,16.65
2022-11-06T20:34:27.470Z,16.55
2022-11-06T20:36:56.910Z,16.02
2022-11-06T20:39:26.019Z,14.80
2022-11-06T20:41:55.392Z,14.38
2022-11-06T20:44:24.534Z,15.25
2022-11-06T20:46:55.479Z,14.10
2022-11-06T20:49:24.585Z,13.30
2022-11-06T20:52:13.314Z,13.82
2022-11-06T20:54:47.102Z,13.25
2022-11-06T20:57:17.846Z,13.40
2022-11-06T20:59:47.204Z,14.18
2022-11-06T21:02:18.136Z,15.00
2022-11-06T21:04:47.509Z,15.40
2022-11-06T21:07:17.039Z,14.68
2022-11-06T21:09:46.301Z,12.82
2022-11-06T21:12:15.892Z,13.05
2022-11-06T21:14:44.912Z,14.38
2022-11-06T21:17:14.288Z,13.48
2022-11-06T21:19:44.948Z,13.10
2022-11-06T21:22:15.224Z,13.95
2022-11-06T21:24:44.636Z,14.80
2022-11-06T21:27:14.111Z,13.57
2022-11-06T21:29:43.324Z,12.35
2022-11-06T21:32:12.761Z,13.10
2022-11-06T21:34:43.198Z,12.50
2022-11-06T21:37:12.710Z,15.15
2022-11-06T21:39:41.882Z,13.35
2022-11-06T21:42:11.281Z,13.35
2022-11-06T21:44:40.468Z,13.20
2022-11-06T21:47:09.834Z,12.68
2022-11-06T21:49:39.176Z,13.32
2022-11-06T21:52:29.432Z,12.93
2022-11-06T21:55:16.098Z,12.77
2022-11-06T21:57:45.612Z,13.10
2022-11-06T22:00:15.625Z,12.70
2022-11-06T22:02:45.227Z,12.55
2022-11-06T22:05:14.595Z,12.20
2022-11-06T22:07:45.497Z,12.55
2022-11-06T22:10:15.095Z,12.70
2022-11-06T22:12:44.455Z,13.32
2022-11-06T22:15:14.782Z,14.35
2022-11-06T22:17:44.273Z,12.88
2022-11-06T22:20:13.731Z,12.60
2022-11-06T22:22:44.551Z,12.55
2022-11-06T22:25:14.137Z,13.63
2022-11-06T22:27:44.692Z,13.30
2022-11-06T22:30:14.978Z,11.25
2022-11-06T22:32:44.630Z,13.05
2022-11-06T22:35:13.783Z,11.82
2022-11-06T22:37:44.727Z,12.13
2022-11-06T22:40:14.065Z,13.52
2022-11-06T22:42:47.183Z,11.98
2022-11-06T22:45:18.766Z,12.23
2022-11-06T22:47:48.589Z,12.43
2022-11-06T22:50:17.975Z,11.63
2022-11-06T22:52:48.813Z,11.15
2022-11-06T22:55:18.496Z,12.13
2022-11-06T22:57:48.085Z,11.48
2022-11-06T23:00:18.555Z,11.52
2022-11-06T23:02:48.164Z,10.70
2022-11-06T23:05:17.630Z,10.75
2022-11-06T23:07:48.542Z,10.50
2022-11-06T23:10:28.726Z,10.85
2022-11-06T23:12:58.696Z,10.15
2022-11-06T23:15:27.948Z,10.15
2022-11-06T23:17:57.788Z,9.93
2022-11-06T23:20:27.200Z,9.98
2022-11-06T23:22:58.433Z,9.93
2022-11-06T23:25:27.974Z,9.73
2022-11-06T23:27:59.778Z,9.52
2022-11-06T23:30:30.119Z,9.93
2022-11-06T23:33:00.054Z,11.07
2022-11-06T23:35:32.583Z,11.15
2022-11-06T23:38:03.977Z,11.68
2022-11-06T23:40:33.187Z,13.45
2022-11-06T23:43:02.549Z,12.23
2022-11-06T23:45:48.876Z,10.77
2022-11-06T23:48:18.731Z,13.10
2022-11-06T23:50:47.987Z,14.60
2022-11-06T23:53:18.809Z,15.15
2022-11-06T23:55:47.923Z,13.63
2022-11-06T23:58:17.354Z,13.82
